sensor_id;sensor_type;location;lat;lon;timestamp;pressure;altitude;pressure_sealevel;temperature;humidity
70900;BME280;67902;52.154;5.430;2023-05-16T00:01:23;102012.47;;;9.70;79.08
70900;BME280;67902;52.154;5.430;2023-05-16T00:03:50;102013.28;;;9.64;79.31
70900;BME280;67902;52.154;5.430;2023-05-16T00:06:16;102019.13;;;9.61;78.53
70900;BME280;67902;52.154;5.430;2023-05-16T00:08:43;102017.88;;;9.64;78.88
70900;BME280;67902;52.154;5.430;2023-05-16T00:11:09;102015.78;;;9.66;79.20
70900;BME280;67902;52.154;5.430;2023-05-16T00:13:36;102022.44;;;9.70;79.11
70900;BME280;67902;52.154;5.430;2023-05-16T00:16:02;102021.00;;;9.74;78.33
70900;BME280;67902;52.154;5.430;2023-05-16T00:18:29;102028.28;;;9.73;79.14
70900;BME280;67902;52.154;5.430;2023-05-16T00:20:56;102023.69;;;9.74;77.85
70900;BME280;67902;52.154;5.430;2023-05-16T00:23:22;102030.13;;;9.73;77.63
70900;BME280;67902;52.154;5.430;2023-05-16T00:25:49;102031.38;;;9.64;78.74
70900;BME280;67902;52.154;5.430;2023-05-16T00:28:15;102024.09;;;9.58;78.45
70900;BME280;67902;52.154;5.430;2023-05-16T00:30:42;102024.94;;;9.52;78.37
70900;BME280;67902;52.154;5.430;2023-05-16T00:33:08;102019.97;;;9.49;79.00
70900;BME280;67902;52.154;5.430;2023-05-16T00:35:34;102022.66;;;9.49;78.72
70900;BME280;67902;52.154;5.430;2023-05-16T00:38:01;102015.78;;;9.46;79.55
70900;BME280;67902;52.154;5.430;2023-05-16T00:40:27;102024.09;;;9.38;78.91
70900;BME280;67902;52.154;5.430;2023-05-16T00:42:54;102028.25;;;9.27;79.50
70900;BME280;67902;52.154;5.430;2023-05-16T00:45:20;102030.72;;;9.16;79.64
70900;BME280;67902;52.154;5.430;2023-05-16T00:47:47;102032.19;;;9.12;79.81
70900;BME280;67902;52.154;5.430;2023-05-16T00:50:14;102032.59;;;9.09;80.06
70900;BME280;67902;52.154;5.430;2023-05-16T00:52:40;102030.91;;;9.01;79.93
70900;BME280;67902;52.154;5.430;2023-05-16T00:55:07;102031.53;;;8.97;80.78
70900;BME280;67902;52.154;5.430;2023-05-16T00:57:36;102029.84;;;8.96;82.05
70900;BME280;67902;52.154;5.430;2023-05-16T01:00:05;102028.78;;;8.90;82.11
70900;BME280;67902;52.154;5.430;2023-05-16T01:02:33;102035.44;;;8.88;81.93
70900;BME280;67902;52.154;5.430;2023-05-16T01:05:00;102033.97;;;8.85;81.97
70900;BME280;67902;52.154;5.430;2023-05-16T01:07:26;102030.44;;;8.85;81.29
70900;BME280;67902;52.154;5.430;2023-05-16T01:09:52;102038.16;;;8.81;82.85
70900;BME280;67902;52.154;5.430;2023-05-16T01:12:29;102035.59;;;8.73;82.62
70900;BME280;67902;52.154;5.430;2023-05-16T01:15:09;102036.44;;;8.67;81.84
70900;BME280;67902;52.154;5.430;2023-05-16T01:23:03;102044.22;;;8.49;81.85
70900;BME280;67902;52.154;5.430;2023-05-16T01:25:55;102043.38;;;8.42;82.34
70900;BME280;67902;52.154;5.430;2023-05-16T01:28:23;102041.31;;;8.44;82.67
70900;BME280;67902;52.154;5.430;2023-05-16T01:30:50;102046.88;;;8.42;82.04
70900;BME280;67902;52.154;5.430;2023-05-16T01:33:17;102046.72;;;8.44;82.63
70900;BME280;67902;52.154;5.430;2023-05-16T01:35:54;102043.78;;;8.39;83.44
70900;BME280;67902;52.154;5.430;2023-05-16T01:38:25;102039.81;;;8.35;82.61
70900;BME280;67902;52.154;5.430;2023-05-16T01:41:03;102039.75;;;8.28;83.33
70900;BME280;67902;52.154;5.430;2023-05-16T01:43:38;102037.00;;;8.22;83.37
70900;BME280;67902;52.154;5.430;2023-05-16T01:46:15;102043.19;;;8.15;82.98
70900;BME280;67902;52.154;5.430;2023-05-16T01:48:57;102048.59;;;8.15;83.53
70900;BME280;67902;52.154;5.430;2023-05-16T01:51:28;102051.06;;;8.10;83.16
70900;BME280;67902;52.154;5.430;2023-05-16T01:53:58;102047.09;;;8.06;83.79
70900;BME280;67902;52.154;5.430;2023-05-16T01:56:27;102052.88;;;8.03;84.37
70900;BME280;67902;52.154;5.430;2023-05-16T01:58:56;102050.56;;;8.00;83.79
70900;BME280;67902;52.154;5.430;2023-05-16T02:01:23;102047.63;;;7.95;83.82
70900;BME280;67902;52.154;5.430;2023-05-16T02:03:49;102055.28;;;7.92;84.46
70900;BME280;67902;52.154;5.430;2023-05-16T02:06:16;102055.28;;;7.92;84.16
70900;BME280;67902;52.154;5.430;2023-05-16T02:08:43;102054.47;;;7.91;84.56
70900;BME280;67902;52.154;5.430;2023-05-16T02:11:09;102055.66;;;7.89;83.85
70900;BME280;67902;52.154;5.430;2023-05-16T02:13:36;102063.97;;;7.87;84.33
70900;BME280;67902;52.154;5.430;2023-05-16T02:16:02;102066.22;;;7.84;84.56
70900;BME280;67902;52.154;5.430;2023-05-16T02:18:29;102066.19;;;7.77;84.79
70900;BME280;67902;52.154;5.430;2023-05-16T02:20:55;102067.81;;;7.78;84.63
70900;BME280;67902;52.154;5.430;2023-05-16T02:23:22;102068.03;;;7.77;84.53
70900;BME280;67902;52.154;5.430;2023-05-16T02:25:49;102074.91;;;7.79;84.26
70900;BME280;67902;52.154;5.430;2023-05-16T02:28:15;102069.13;;;7.82;84.20
70900;BME280;67902;52.154;5.430;2023-05-16T02:30:41;102070.34;;;7.80;84.94
70900;BME280;67902;52.154;5.430;2023-05-16T02:33:09;102071.38;;;7.79;84.73
70900;BME280;67902;52.154;5.430;2023-05-16T02:35:36;102070.72;;;7.77;84.47
70900;BME280;67902;52.154;5.430;2023-05-16T02:38:02;102071.31;;;7.72;84.10
70900;BME280;67902;52.154;5.430;2023-05-16T02:40:28;102078.38;;;7.73;85.01
70900;BME280;67902;52.154;5.430;2023-05-16T02:42:55;102076.06;;;7.70;84.74
70900;BME280;67902;52.154;5.430;2023-05-16T02:45:21;102074.84;;;7.73;84.92
70900;BME280;67902;52.154;5.430;2023-05-16T02:47:48;102077.75;;;7.71;85.56
70900;BME280;67902;52.154;5.430;2023-05-16T02:50:14;102083.69;;;7.67;85.54
70900;BME280;67902;52.154;5.430;2023-05-16T02:52:40;102074.38;;;7.69;85.15
70900;BME280;67902;52.154;5.430;2023-05-16T02:55:07;102083.13;;;7.71;85.70
70900;BME280;67902;52.154;5.430;2023-05-16T02:57:47;102087.69;;;7.71;85.50
70900;BME280;67902;52.154;5.430;2023-05-16T03:00:14;102082.88;;;7.66;84.83
70900;BME280;67902;52.154;5.430;2023-05-16T03:02:43;102089.28;;;7.65;84.98
70900;BME280;67902;52.154;5.430;2023-05-16T03:05:10;102093.84;;;7.65;84.54
70900;BME280;67902;52.154;5.430;2023-05-16T03:07:38;102100.06;;;7.65;85.25
70900;BME280;67902;52.154;5.430;2023-05-16T03:10:05;102093.00;;;7.64;85.03
70900;BME280;67902;52.154;5.430;2023-05-16T03:12:32;102094.63;;;7.58;85.18
70900;BME280;67902;52.154;5.430;2023-05-16T03:14:58;102086.09;;;7.55;85.49
70900;BME280;67902;52.154;5.430;2023-05-16T03:17:25;102092.31;;;7.55;85.78
70900;BME280;67902;52.154;5.430;2023-05-16T03:19:52;102095.38;;;7.52;85.15
70900;BME280;67902;52.154;5.430;2023-05-16T03:22:19;102088.34;;;7.51;85.01
70900;BME280;67902;52.154;5.430;2023-05-16T03:24:45;102099.31;;;7.50;85.61
70900;BME280;67902;52.154;5.430;2023-05-16T03:27:12;102108.81;;;7.46;85.68
70900;BME280;67902;52.154;5.430;2023-05-16T03:29:38;102101.13;;;7.43;85.51
70900;BME280;67902;52.154;5.430;2023-05-16T03:32:05;102109.84;;;7.45;86.28
70900;BME280;67902;52.154;5.430;2023-05-16T03:34:31;102105.47;;;7.44;85.84
70900;BME280;67902;52.154;5.430;2023-05-16T03:36:58;102104.81;;;7.42;85.85
70900;BME280;67902;52.154;5.430;2023-05-16T03:39:24;102105.22;;;7.39;85.93
70900;BME280;67902;52.154;5.430;2023-05-16T03:41:51;102112.28;;;7.40;85.51
70900;BME280;67902;52.154;5.430;2023-05-16T03:44:17;102113.97;;;7.41;86.21
70900;BME280;67902;52.154;5.430;2023-05-16T03:46:44;102112.34;;;7.46;86.03
70900;BME280;67902;52.154;5.430;2023-05-16T03:49:10;102111.06;;;7.42;85.45
70900;BME280;67902;52.154;5.430;2023-05-16T03:51:37;102111.44;;;7.39;85.65
70900;BME280;67902;52.154;5.430;2023-05-16T03:54:03;102113.97;;;7.41;85.36
70900;BME280;67902;52.154;5.430;2023-05-16T03:56:30;102120.34;;;7.40;84.95
70900;BME280;67902;52.154;5.430;2023-05-16T03:58:56;102118.50;;;7.40;84.34
70900;BME280;67902;52.154;5.430;2023-05-16T04:01:23;102116.44;;;7.42;85.05
70900;BME280;67902;52.154;5.430;2023-05-16T04:03:49;102124.06;;;7.39;84.80
70900;BME280;67902;52.154;5.430;2023-05-16T04:06:16;102123.06;;;7.40;85.15
70900;BME280;67902;52.154;5.430;2023-05-16T04:08:43;102136.31;;;7.41;84.68
70900;BME280;67902;52.154;5.430;2023-05-16T04:11:10;102125.75;;;7.40;84.73
70900;BME280;67902;52.154;5.430;2023-05-16T04:13:36;102127.44;;;7.41;85.06
70900;BME280;67902;52.154;5.430;2023-05-16T04:16:03;102124.31;;;7.44;84.58
70900;BME280;67902;52.154;5.430;2023-05-16T04:18:30;102139.72;;;7.50;84.74
70900;BME280;67902;52.154;5.430;2023-05-16T04:20:56;102130.41;;;7.52;84.46
70900;BME280;67902;52.154;5.430;2023-05-16T04:23:23;102127.16;;;7.57;84.43
70900;BME280;67902;52.154;5.430;2023-05-16T04:25:49;102131.13;;;7.61;84.19
70900;BME280;67902;52.154;5.430;2023-05-16T04:28:15;102134.09;;;7.66;84.16
70900;BME280;67902;52.154;5.430;2023-05-16T04:30:42;102141.41;;;7.72;84.23
70900;BME280;67902;52.154;5.430;2023-05-16T04:33:08;102141.69;;;7.77;84.51
70900;BME280;67902;52.154;5.430;2023-05-16T04:35:35;102149.56;;;7.79;84.50
70900;BME280;67902;52.154;5.430;2023-05-16T04:38:02;102154.94;;;7.79;84.84
70900;BME280;67902;52.154;5.430;2023-05-16T04:40:29;102145.25;;;7.84;83.91
70900;BME280;67902;52.154;5.430;2023-05-16T04:42:56;102147.94;;;7.84;84.56
70900;BME280;67902;52.154;5.430;2023-05-16T04:45:22;102151.09;;;7.88;83.82
70900;BME280;67902;52.154;5.430;2023-05-16T04:47:50;102150.88;;;7.89;83.33
70900;BME280;67902;52.154;5.430;2023-05-16T04:50:16;102156.34;;;7.96;84.70
70900;BME280;67902;52.154;5.430;2023-05-16T04:52:43;102159.88;;;7.96;83.91
70900;BME280;67902;52.154;5.430;2023-05-16T04:55:10;102161.16;;;8.00;83.47
70900;BME280;67902;52.154;5.430;2023-05-16T04:57:36;102163.47;;;8.03;83.88
70900;BME280;67902;52.154;5.430;2023-05-16T05:00:04;102162.91;;;8.08;83.11
70900;BME280;67902;52.154;5.430;2023-05-16T05:02:33;102173.09;;;8.12;83.35
70900;BME280;67902;52.154;5.430;2023-05-16T05:04:59;102169.41;;;8.20;83.30
70900;BME280;67902;52.154;5.430;2023-05-16T05:07:26;102169.09;;;8.30;83.48
70900;BME280;67902;52.154;5.430;2023-05-16T05:09:54;102165.63;;;8.36;83.45
70900;BME280;67902;52.154;5.430;2023-05-16T05:12:21;102168.16;;;8.44;82.76
70900;BME280;67902;52.154;5.430;2023-05-16T05:14:48;102173.41;;;8.52;82.18
70900;BME280;67902;52.154;5.430;2023-05-16T05:17:14;102160.59;;;8.60;82.51
70900;BME280;67902;52.154;5.430;2023-05-16T05:19:42;102167.28;;;8.71;82.22
70900;BME280;67902;52.154;5.430;2023-05-16T05:22:08;102169.44;;;8.82;81.61
70900;BME280;67902;52.154;5.430;2023-05-16T05:24:35;102167.41;;;8.91;81.91
70900;BME280;67902;52.154;5.430;2023-05-16T05:27:01;102174.09;;;9.01;81.41
70900;BME280;67902;52.154;5.430;2023-05-16T05:29:28;102171.66;;;9.13;81.09
70900;BME280;67902;52.154;5.430;2023-05-16T05:31:55;102176.28;;;9.25;81.16
70900;BME280;67902;52.154;5.430;2023-05-16T05:34:21;102183.13;;;9.21;81.36
70900;BME280;67902;52.154;5.430;2023-05-16T05:36:48;102188.31;;;9.16;80.52
70900;BME280;67902;52.154;5.430;2023-05-16T05:39:14;102189.97;;;9.17;80.44
70900;BME280;67902;52.154;5.430;2023-05-16T05:41:40;102187.94;;;9.32;80.29
70900;BME280;67902;52.154;5.430;2023-05-16T05:44:07;102192.16;;;9.55;80.49
70900;BME280;67902;52.154;5.430;2023-05-16T05:46:33;102188.66;;;9.67;79.74
70900;BME280;67902;52.154;5.430;2023-05-16T05:49:00;102187.22;;;9.91;79.45
70900;BME280;67902;52.154;5.430;2023-05-16T05:51:27;102187.47;;;10.09;79.33
70900;BME280;67902;52.154;5.430;2023-05-16T05:53:53;102186.66;;;10.28;79.12
70900;BME280;67902;52.154;5.430;2023-05-16T05:56:21;102191.03;;;10.49;76.84
70900;BME280;67902;52.154;5.430;2023-05-16T05:58:47;102190.16;;;10.75;76.81
70900;BME280;67902;52.154;5.430;2023-05-16T06:01:13;102199.63;;;11.10;75.10
70900;BME280;67902;52.154;5.430;2023-05-16T06:03:40;102197.72;;;11.61;74.87
70900;BME280;67902;52.154;5.430;2023-05-16T06:06:07;102193.28;;;12.05;72.95
70900;BME280;67902;52.154;5.430;2023-05-16T06:08:33;102198.63;;;12.18;71.90
70900;BME280;67902;52.154;5.430;2023-05-16T06:11:00;102202.66;;;12.76;70.60
70900;BME280;67902;52.154;5.430;2023-05-16T06:13:26;102198.13;;;13.07;68.45
70900;BME280;67902;52.154;5.430;2023-05-16T06:15:53;102204.34;;;12.96;66.98
70900;BME280;67902;52.154;5.430;2023-05-16T06:18:20;102212.44;;;12.59;67.84
70900;BME280;67902;52.154;5.430;2023-05-16T06:20:46;102224.25;;;12.47;68.14
70900;BME280;67902;52.154;5.430;2023-05-16T06:23:12;102221.59;;;12.65;68.28
70900;BME280;67902;52.154;5.430;2023-05-16T06:25:39;102212.91;;;12.74;66.64
70900;BME280;67902;52.154;5.430;2023-05-16T06:28:05;102219.06;;;13.06;67.23
70900;BME280;67902;52.154;5.430;2023-05-16T06:30:32;102215.38;;;13.37;65.00
70900;BME280;67902;52.154;5.430;2023-05-16T06:32:58;102218.00;;;12.89;65.28
70900;BME280;67902;52.154;5.430;2023-05-16T06:35:24;102219.75;;;13.20;65.71
70900;BME280;67902;52.154;5.430;2023-05-16T06:37:51;102215.66;;;13.47;64.83
70900;BME280;67902;52.154;5.430;2023-05-16T06:40:18;102217.50;;;13.35;63.81
70900;BME280;67902;52.154;5.430;2023-05-16T06:42:44;102226.16;;;12.71;65.98
70900;BME280;67902;52.154;5.430;2023-05-16T06:45:11;102220.84;;;12.94;64.59
70900;BME280;67902;52.154;5.430;2023-05-16T06:47:37;102227.13;;;12.95;65.71
70900;BME280;67902;52.154;5.430;2023-05-16T06:50:04;102214.78;;;13.17;65.54
70900;BME280;67902;52.154;5.430;2023-05-16T06:52:31;102226.16;;;12.71;66.12
70900;BME280;67902;52.154;5.430;2023-05-16T06:54:57;102226.78;;;12.48;66.32
70900;BME280;67902;52.154;5.430;2023-05-16T06:57:24;102237.06;;;12.64;66.19
70900;BME280;67902;52.154;5.430;2023-05-16T06:59:51;102224.09;;;13.03;65.78
70900;BME280;67902;52.154;5.430;2023-05-16T07:02:17;102232.91;;;13.41;65.93
70900;BME280;67902;52.154;5.430;2023-05-16T07:04:44;102229.50;;;13.75;64.11
70900;BME280;67902;52.154;5.430;2023-05-16T07:07:10;102229.56;;;13.99;61.85
70900;BME280;67902;52.154;5.430;2023-05-16T07:09:37;102236.41;;;14.19;61.87
70900;BME280;67902;52.154;5.430;2023-05-16T07:12:04;102222.63;;;14.03;61.59
70900;BME280;67902;52.154;5.430;2023-05-16T07:14:30;102228.78;;;13.68;60.09
70900;BME280;67902;52.154;5.430;2023-05-16T07:16:57;102229.94;;;13.61;61.33
70900;BME280;67902;52.154;5.430;2023-05-16T07:19:24;102231.03;;;13.71;60.41
70900;BME280;67902;52.154;5.430;2023-05-16T07:21:50;102226.97;;;13.62;60.41
70900;BME280;67902;52.154;5.430;2023-05-16T07:24:18;102228.38;;;13.65;60.55
70900;BME280;67902;52.154;5.430;2023-05-16T07:26:44;102239.09;;;12.94;62.23
70900;BME280;67902;52.154;5.430;2023-05-16T07:29:11;102244.94;;;12.48;62.85
70900;BME280;67902;52.154;5.430;2023-05-16T07:31:37;102244.56;;;12.87;63.92
70900;BME280;67902;52.154;5.430;2023-05-16T07:34:04;102240.78;;;12.45;63.67
70900;BME280;67902;52.154;5.430;2023-05-16T07:36:33;102248.38;;;12.37;65.49
70900;BME280;67902;52.154;5.430;2023-05-16T07:39:00;102230.00;;;12.82;64.94
70900;BME280;67902;52.154;5.430;2023-05-16T07:41:28;102239.16;;;13.60;61.85
70900;BME280;67902;52.154;5.430;2023-05-16T07:43:54;102233.56;;;13.84;60.83
70900;BME280;67902;52.154;5.430;2023-05-16T07:46:21;102240.38;;;13.75;62.31
70900;BME280;67902;52.154;5.430;2023-05-16T07:48:49;102233.66;;;13.78;61.56
70900;BME280;67902;52.154;5.430;2023-05-16T07:51:15;102240.31;;;13.52;63.39
70900;BME280;67902;52.154;5.430;2023-05-16T07:53:41;102245.56;;;13.65;62.36
70900;BME280;67902;52.154;5.430;2023-05-16T07:56:08;102246.81;;;13.33;60.95
70900;BME280;67902;52.154;5.430;2023-05-16T07:58:34;102257.09;;;13.13;63.61
70900;BME280;67902;52.154;5.430;2023-05-16T08:01:01;102281.91;;;11.93;71.92
70900;BME280;67902;52.154;5.430;2023-05-16T08:03:28;102273.06;;;11.02;73.60
70900;BME280;67902;52.154;5.430;2023-05-16T08:05:54;102276.03;;;10.55;76.93
70900;BME280;67902;52.154;5.430;2023-05-16T08:08:21;102281.22;;;10.36;78.73
70900;BME280;67902;52.154;5.430;2023-05-16T08:10:47;102278.50;;;10.23;77.96
70900;BME280;67902;52.154;5.430;2023-05-16T08:13:14;102272.25;;;10.23;78.54
70900;BME280;67902;52.154;5.430;2023-05-16T08:15:40;102273.75;;;10.58;81.02
70900;BME280;67902;52.154;5.430;2023-05-16T08:18:12;102267.44;;;11.54;80.13
70900;BME280;67902;52.154;5.430;2023-05-16T08:20:40;102267.25;;;12.56;79.62
70900;BME280;67902;52.154;5.430;2023-05-16T08:23:07;102261.53;;;13.25;77.60
70900;BME280;67902;52.154;5.430;2023-05-16T08:25:34;102257.91;;;14.09;77.79
70900;BME280;67902;52.154;5.430;2023-05-16T08:28:01;102260.31;;;14.59;72.50
70900;BME280;67902;52.154;5.430;2023-05-16T08:30:27;102256.25;;;15.07;73.66
70900;BME280;67902;52.154;5.430;2023-05-16T08:32:54;102247.13;;;15.65;70.38
70900;BME280;67902;52.154;5.430;2023-05-16T08:35:21;102248.59;;;15.84;66.51
70900;BME280;67902;52.154;5.430;2023-05-16T08:37:47;102244.22;;;16.45;68.42
70900;BME280;67902;52.154;5.430;2023-05-16T08:40:14;102247.13;;;17.10;64.06
70900;BME280;67902;52.154;5.430;2023-05-16T08:42:41;102243.50;;;16.04;63.29
70900;BME280;67902;52.154;5.430;2023-05-16T08:45:13;102249.34;;;15.17;63.73
70900;BME280;67902;52.154;5.430;2023-05-16T08:47:41;102253.75;;;14.36;63.60
70900;BME280;67902;52.154;5.430;2023-05-16T08:50:09;102249.50;;;13.69;66.98
70900;BME280;67902;52.154;5.430;2023-05-16T08:52:40;102250.97;;;13.35;67.92
70900;BME280;67902;52.154;5.430;2023-05-16T08:55:10;102248.91;;;13.31;67.09
70900;BME280;67902;52.154;5.430;2023-05-16T08:57:39;102240.47;;;13.99;67.39
70900;BME280;67902;52.154;5.430;2023-05-16T09:00:06;102244.06;;;14.98;64.91
70900;BME280;67902;52.154;5.430;2023-05-16T09:02:41;102242.59;;;15.71;62.49
70900;BME280;67902;52.154;5.430;2023-05-16T09:05:10;102248.72;;;16.22;61.21
70900;BME280;67902;52.154;5.430;2023-05-16T09:07:37;102254.75;;;15.91;58.88
70900;BME280;67902;52.154;5.430;2023-05-16T09:10:05;102254.53;;;16.26;57.72
70900;BME280;67902;52.154;5.430;2023-05-16T09:12:33;102255.69;;;16.13;58.90
70900;BME280;67902;52.154;5.430;2023-05-16T09:15:05;102252.97;;;16.13;59.72
70900;BME280;67902;52.154;5.430;2023-05-16T09:17:41;102262.94;;;15.91;58.70
70900;BME280;67902;52.154;5.430;2023-05-16T09:20:10;102260.06;;;15.06;58.13
70900;BME280;67902;52.154;5.430;2023-05-16T09:22:37;102259.34;;;14.99;58.42
70900;BME280;67902;52.154;5.430;2023-05-16T09:25:04;102259.78;;;15.31;58.16
70900;BME280;67902;52.154;5.430;2023-05-16T09:27:34;102261.94;;;15.69;55.73
70900;BME280;67902;52.154;5.430;2023-05-16T09:30:01;102257.84;;;16.28;54.08
70900;BME280;67902;52.154;5.430;2023-05-16T09:32:27;102265.56;;;16.31;58.07
70900;BME280;67902;52.154;5.430;2023-05-16T09:34:54;102258.09;;;16.93;52.09
70900;BME280;67902;52.154;5.430;2023-05-16T09:37:23;102263.28;;;16.56;53.98
70900;BME280;67902;52.154;5.430;2023-05-16T09:39:52;102261.84;;;16.37;51.94
70900;BME280;67902;52.154;5.430;2023-05-16T09:42:19;102258.78;;;16.50;52.65
70900;BME280;67902;52.154;5.430;2023-05-16T09:44:49;102263.50;;;16.88;52.16
70900;BME280;67902;52.154;5.430;2023-05-16T09:47:19;102258.41;;;17.35;50.98
70900;BME280;67902;52.154;5.430;2023-05-16T09:49:52;102269.84;;;16.72;53.00
70900;BME280;67902;52.154;5.430;2023-05-16T09:52:19;102268.19;;;16.09;52.01
70900;BME280;67902;52.154;5.430;2023-05-16T09:54:47;102270.91;;;15.41;51.51
70900;BME280;67902;52.154;5.430;2023-05-16T09:57:19;102269.84;;;16.10;52.87
70900;BME280;67902;52.154;5.430;2023-05-16T09:59:47;102257.84;;;17.11;51.19
70900;BME280;67902;52.154;5.430;2023-05-16T10:02:13;102253.66;;;18.22;49.65
70900;BME280;67902;52.154;5.430;2023-05-16T10:04:41;102248.34;;;19.21;48.07
70900;BME280;67902;52.154;5.430;2023-05-16T10:07:08;102249.88;;;18.97;47.19
70900;BME280;67902;52.154;5.430;2023-05-16T10:09:35;102250.16;;;17.73;48.82
70900;BME280;67902;52.154;5.430;2023-05-16T10:12:07;102263.94;;;16.80;51.33
70900;BME280;67902;52.154;5.430;2023-05-16T10:14:38;102263.13;;;17.83;52.37
70900;BME280;67902;52.154;5.430;2023-05-16T10:17:07;102255.72;;;18.37;47.25
70900;BME280;67902;52.154;5.430;2023-05-16T10:19:36;102262.47;;;17.71;47.64
70900;BME280;67902;52.154;5.430;2023-05-16T10:22:05;102266.94;;;17.17;47.01
70900;BME280;67902;52.154;5.430;2023-05-16T10:24:43;102265.06;;;16.51;48.54
70900;BME280;67902;52.154;5.430;2023-05-16T10:27:14;102269.84;;;17.10;50.31
70900;BME280;67902;52.154;5.430;2023-05-16T10:29:42;102265.28;;;17.37;49.21
70900;BME280;67902;52.154;5.430;2023-05-16T10:32:22;102267.31;;;16.87;50.75
70900;BME280;67902;52.154;5.430;2023-05-16T10:34:48;102267.41;;;17.30;50.91
70900;BME280;67902;52.154;5.430;2023-05-16T10:37:16;102255.06;;;18.57;45.99
70900;BME280;67902;52.154;5.430;2023-05-16T10:39:43;102255.38;;;18.97;45.70
70900;BME280;67902;52.154;5.430;2023-05-16T10:42:10;102259.25;;;18.64;46.61
70900;BME280;67902;52.154;5.430;2023-05-16T10:44:39;102265.25;;;18.29;46.33
70900;BME280;67902;52.154;5.430;2023-05-16T10:47:18;102261.19;;;17.57;49.19
70900;BME280;67902;52.154;5.430;2023-05-16T10:49:45;102269.41;;;17.18;50.38
70900;BME280;67902;52.154;5.430;2023-05-16T10:52:12;102266.88;;;17.33;50.45
70900;BME280;67902;52.154;5.430;2023-05-16T10:54:50;102272.75;;;17.20;53.44
70900;BME280;67902;52.154;5.430;2023-05-16T10:57:18;102263.81;;;17.52;51.17
70900;BME280;67902;52.154;5.430;2023-05-16T10:59:49;102255.88;;;18.25;48.04
70900;BME280;67902;52.154;5.430;2023-05-16T11:02:32;102260.19;;;19.27;48.54
70900;BME280;67902;52.154;5.430;2023-05-16T11:05:00;102255.78;;;19.98;46.72
70900;BME280;67902;52.154;5.430;2023-05-16T11:07:33;102251.94;;;19.94;43.44
70900;BME280;67902;52.154;5.430;2023-05-16T11:10:07;102252.53;;;18.87;45.85
70900;BME280;67902;52.154;5.430;2023-05-16T11:12:42;102255.66;;;18.32;45.25
70900;BME280;67902;52.154;5.430;2023-05-16T11:15:30;102263.09;;;18.36;44.92
70900;BME280;67902;52.154;5.430;2023-05-16T11:18:06;102265.59;;;18.11;45.85
70900;BME280;67902;52.154;5.430;2023-05-16T11:20:37;102263.06;;;17.78;45.82
70900;BME280;67902;52.154;5.430;2023-05-16T11:23:18;102270.41;;;17.29;46.85
70900;BME280;67902;52.154;5.430;2023-05-16T11:25:49;102262.16;;;16.91;46.59
70900;BME280;67902;52.154;5.430;2023-05-16T11:28:17;102261.69;;;16.77;47.44
70900;BME280;67902;52.154;5.430;2023-05-16T11:30:49;102265.81;;;16.46;48.60
70900;BME280;67902;52.154;5.430;2023-05-16T11:33:17;102267.66;;;15.96;48.67
70900;BME280;67902;52.154;5.430;2023-05-16T11:36:01;102267.84;;;15.38;49.97
70900;BME280;67902;52.154;5.430;2023-05-16T11:38:40;102284.34;;;15.31;52.41
70900;BME280;67902;52.154;5.430;2023-05-16T11:41:08;102271.50;;;15.43;52.68
70900;BME280;67902;52.154;5.430;2023-05-16T11:43:44;102281.59;;;15.43;51.23
70900;BME280;67902;52.154;5.430;2023-05-16T11:46:12;102279.56;;;15.50;50.66
70900;BME280;67902;52.154;5.430;2023-05-16T11:48:39;102281.97;;;15.46;51.07
70900;BME280;67902;52.154;5.430;2023-05-16T11:51:06;102278.91;;;15.20;52.66
70900;BME280;67902;52.154;5.430;2023-05-16T11:53:34;102286.63;;;14.99;53.38
70900;BME280;67902;52.154;5.430;2023-05-16T11:56:01;102296.00;;;15.03;55.03
70900;BME280;67902;52.154;5.430;2023-05-16T11:58:28;102297.41;;;15.06;55.27
70900;BME280;67902;52.154;5.430;2023-05-16T12:00:54;102296.34;;;14.84;55.17
70900;BME280;67902;52.154;5.430;2023-05-16T12:03:21;102299.53;;;14.69;56.21
70900;BME280;67902;52.154;5.430;2023-05-16T12:05:52;102293.22;;;14.57;56.44
70900;BME280;67902;52.154;5.430;2023-05-16T12:08:20;102294.09;;;14.81;56.55
70900;BME280;67902;52.154;5.430;2023-05-16T12:10:53;102289.59;;;15.09;55.75
70900;BME280;67902;52.154;5.430;2023-05-16T12:13:21;102283.97;;;15.51;54.69
70900;BME280;67902;52.154;5.430;2023-05-16T12:15:49;102286.53;;;15.97;53.59
70900;BME280;67902;52.154;5.430;2023-05-16T12:18:17;102284.84;;;16.08;52.11
70900;BME280;67902;52.154;5.430;2023-05-16T12:20:44;102290.50;;;16.35;53.06
70900;BME280;67902;52.154;5.430;2023-05-16T12:23:13;102287.53;;;16.19;53.45
70900;BME280;67902;52.154;5.430;2023-05-16T12:25:45;102290.34;;;15.96;53.85
70900;BME280;67902;52.154;5.430;2023-05-16T12:28:12;102287.97;;;15.72;53.90
70900;BME280;67902;52.154;5.430;2023-05-16T12:30:41;102295.09;;;15.61;54.19
70900;BME280;67902;52.154;5.430;2023-05-16T12:33:10;102295.97;;;15.50;53.97
70900;BME280;67902;52.154;5.430;2023-05-16T12:35:42;102301.56;;;15.32;55.15
70900;BME280;67902;52.154;5.430;2023-05-16T12:38:10;102298.94;;;15.14;57.21
70900;BME280;67902;52.154;5.430;2023-05-16T12:40:38;102306.66;;;15.05;58.63
70900;BME280;67902;52.154;5.430;2023-05-16T12:45:40;102304.91;;;14.87;58.64
70900;BME280;67902;52.154;5.430;2023-05-16T12:48:12;102289.91;;;15.36;58.55
70900;BME280;67902;52.154;5.430;2023-05-16T12:50:39;102296.34;;;16.88;55.29
70900;BME280;67902;52.154;5.430;2023-05-16T12:53:09;102290.69;;;17.11;55.28
70900;BME280;67902;52.154;5.430;2023-05-16T12:55:37;102295.38;;;16.77;55.08
70900;BME280;67902;52.154;5.430;2023-05-16T12:58:04;102296.41;;;16.43;55.45
70900;BME280;67902;52.154;5.430;2023-05-16T13:00:31;102300.44;;;16.24;56.45
70900;BME280;67902;52.154;5.430;2023-05-16T13:02:57;102294.25;;;16.00;56.68
70900;BME280;67902;52.154;5.430;2023-05-16T13:05:24;102293.56;;;15.65;55.08
70900;BME280;67902;52.154;5.430;2023-05-16T13:07:50;102300.34;;;15.28;54.88